createdAt,value
2018-09-24T00:02:16.336Z,6.23
2018-09-24T00:08:20.597Z,5.67
2018-09-24T00:14:25.219Z,5.07
2018-09-24T00:20:28.792Z,5.67
2018-09-24T00:26:33.533Z,6.53
2018-09-24T00:32:37.469Z,7.37
2018-09-24T00:38:40.963Z,7.80
2018-09-24T00:44:44.513Z,8.10
2018-09-24T00:50:48.342Z,8.20
2018-09-24T00:56:51.738Z,8.80
2018-09-24T01:02:55.804Z,9.47
2018-09-24T01:08:59.310Z,10.67
2018-09-24T01:15:03.665Z,10.07
2018-09-24T01:21:07.465Z,10.37
2018-09-24T01:27:11.276Z,10.73
2018-09-24T01:33:16.166Z,10.50
2018-09-24T01:39:19.846Z,8.70
2018-09-24T01:45:23.743Z,7.80
2018-09-24T01:51:36.143Z,9.50
2018-09-24T01:57:39.902Z,8.63
2018-09-24T02:03:44.145Z,10.27
2018-09-24T02:09:48.100Z,10.37
2018-09-24T02:15:51.579Z,11.23
2018-09-24T02:22:00.622Z,10.83
2018-09-24T02:28:04.469Z,10.97
2018-09-24T02:34:09.629Z,9.53
2018-09-24T02:40:19.830Z,9.90
2018-09-24T02:46:30.720Z,9.53
2018-09-24T02:52:34.955Z,8.90
2018-09-24T02:58:38.382Z,9.83
2018-09-24T03:04:42.114Z,8.83
2018-09-24T03:10:47.262Z,8.17
2018-09-24T03:16:51.662Z,7.70
2018-09-24T03:22:55.554Z,7.63
2018-09-24T03:28:59.426Z,7.83
2018-09-24T03:35:03.097Z,8.07
2018-09-24T03:41:07.925Z,8.17
2018-09-24T03:47:11.577Z,8.57
2018-09-24T03:53:15.277Z,9.17
2018-09-24T03:59:20.300Z,9.63
2018-09-24T04:05:30.075Z,8.20
2018-09-24T04:11:39.128Z,8.93
2018-09-24T04:17:49.111Z,9.20
2018-09-24T04:23:58.132Z,9.47
2018-09-24T04:30:07.871Z,9.40
2018-09-24T04:36:17.183Z,10.23
2018-09-24T04:42:26.853Z,9.13
2018-09-24T04:48:36.305Z,11.53
2018-09-24T04:54:46.146Z,8.70
2018-09-24T05:00:55.296Z,8.40
2018-09-24T05:07:04.913Z,10.60
2018-09-24T05:13:14.249Z,10.43
2018-09-24T05:19:24.793Z,9.90
2018-09-24T05:25:34.101Z,10.07
2018-09-24T05:31:44.022Z,10.93
2018-09-24T05:38:04.695Z,12.47
2018-09-24T05:44:20.064Z,10.13
2018-09-24T05:50:29.320Z,10.23
2018-09-24T05:56:38.895Z,9.27
2018-09-24T06:02:48.023Z,8.50
2018-09-24T06:08:57.197Z,7.30
2018-09-24T06:15:06.876Z,7.63
2018-09-24T06:21:17.203Z,7.90
2018-09-24T06:27:26.632Z,6.30
2018-09-24T06:33:35.925Z,7.10
2018-09-24T06:39:45.149Z,6.27
2018-09-24T06:45:55.042Z,6.80
2018-09-24T06:52:04.485Z,6.17
2018-09-24T06:58:13.548Z,7.10
2018-09-24T07:04:29.753Z,6.63
2018-09-24T07:10:38.927Z,5.80
2018-09-24T07:16:48.413Z,5.67
2018-09-24T07:22:58.686Z,3.27
2018-09-24T07:29:08.230Z,3.57
2018-09-24T07:35:18.161Z,4.17
2018-09-24T07:41:27.441Z,4.00
2018-09-24T07:47:36.710Z,3.90
2018-09-24T07:53:47.020Z,4.17
2018-09-24T07:59:56.622Z,3.80
2018-09-24T08:06:06.411Z,3.40
2018-09-24T08:12:16.982Z,3.23
2018-09-24T08:18:26.446Z,3.20
2018-09-24T08:24:36.026Z,2.73
2018-09-24T08:30:45.477Z,2.67
2018-09-24T08:36:54.878Z,3.30
2018-09-24T08:43:04.310Z,2.27
2018-09-24T08:49:13.553Z,2.50
2018-09-24T08:55:22.574Z,2.57
2018-09-24T09:01:31.941Z,2.60
2018-09-24T09:07:41.122Z,2.43
2018-09-24T09:13:50.246Z,1.90
2018-09-24T09:19:59.814Z,1.73
2018-09-24T09:26:09.050Z,1.40
2018-09-24T09:32:19.345Z,1.70
2018-09-24T09:38:28.631Z,0.80
2018-09-24T09:44:37.527Z,1.30
2018-09-24T09:50:47.378Z,1.77
2018-09-24T09:56:57.061Z,1.30
2018-09-24T10:03:07.609Z,1.50
2018-09-24T10:09:17.023Z,1.10
2018-09-24T10:15:26.769Z,1.20
2018-09-24T10:21:35.929Z,1.00
2018-09-24T10:27:44.878Z,1.50
2018-09-24T10:33:53.998Z,1.50
2018-09-24T10:40:04.385Z,1.90
2018-09-24T10:46:13.803Z,1.47
2018-09-24T10:52:23.185Z,1.77
2018-09-24T10:58:33.260Z,1.23
2018-09-24T11:04:42.534Z,1.07
2018-09-24T11:10:52.397Z,1.33
2018-09-24T11:17:02.217Z,0.93
2018-09-24T11:23:11.676Z,0.90
2018-09-24T11:29:20.665Z,0.70
2018-09-24T11:35:29.931Z,1.50
2018-09-24T11:41:39.021Z,1.17
2018-09-24T11:47:48.893Z,1.20
2018-09-24T11:53:58.965Z,1.27
2018-09-24T12:00:08.211Z,1.30
2018-09-24T12:06:18.664Z,1.40
2018-09-24T12:12:28.923Z,1.30
2018-09-24T12:18:38.779Z,0.97
2018-09-24T12:24:48.517Z,0.97
2018-09-24T12:30:58.808Z,0.93
2018-09-24T12:37:08.639Z,1.30
2018-09-24T12:43:18.136Z,1.10
2018-09-24T12:49:27.364Z,0.90
2018-09-24T12:55:36.714Z,1.30
2018-09-24T13:01:46.811Z,1.40
2018-09-24T13:07:56.578Z,1.27
2018-09-24T13:14:06.445Z,1.47
2018-09-24T13:20:15.596Z,1.50
2018-09-24T13:26:24.677Z,1.50
2018-09-24T13:32:33.990Z,1.37
2018-09-24T13:38:43.409Z,1.60
2018-09-24T13:44:52.665Z,1.30
2018-09-24T13:51:02.044Z,1.30
2018-09-24T13:57:11.393Z,1.50
2018-09-24T14:03:20.867Z,1.67
2018-09-24T14:09:30.509Z,1.10
2018-09-24T14:15:39.929Z,1.50
2018-09-24T14:21:49.332Z,1.70
2018-09-24T14:27:58.721Z,1.50
2018-09-24T14:34:07.898Z,1.90
2018-09-24T14:40:17.369Z,1.80
2018-09-24T14:46:30.820Z,1.23
2018-09-24T14:52:40.775Z,1.40
2018-09-24T14:58:50.871Z,1.47
2018-09-24T15:05:00.263Z,1.40
2018-09-24T15:11:09.719Z,1.80
2018-09-24T15:17:19.676Z,1.40
2018-09-24T15:23:29.522Z,2.33
2018-09-24T15:29:39.323Z,2.10
2018-09-24T15:35:48.965Z,2.47
2018-09-24T15:41:58.794Z,2.00
2018-09-24T15:48:09.021Z,2.43
2018-09-24T15:54:19.095Z,1.87
2018-09-24T16:00:30.559Z,2.30
2018-09-24T16:06:41.395Z,1.73
2018-09-24T16:12:51.633Z,1.47
2018-09-24T16:19:01.360Z,1.83
2018-09-24T16:25:13.189Z,1.83
2018-09-24T16:31:23.081Z,1.40
2018-09-24T16:37:33.715Z,1.00
2018-09-24T16:43:43.113Z,1.20
2018-09-24T16:49:53.529Z,1.53
2018-09-24T16:56:09.426Z,1.17
2018-09-24T17:02:19.554Z,1.70
2018-09-24T17:08:29.083Z,1.73
2018-09-24T17:14:38.291Z,1.70
2018-09-24T17:20:47.456Z,1.83
2018-09-24T17:26:56.610Z,1.73
2018-09-24T17:33:06.588Z,1.70
2018-09-24T17:39:16.706Z,1.50
2018-09-24T17:45:27.365Z,1.63
2018-09-24T17:51:37.825Z,2.30
2018-09-24T17:57:48.518Z,2.20
2018-09-24T18:03:58.780Z,1.60
2018-09-24T18:10:09.579Z,1.97
2018-09-24T18:16:18.983Z,2.10
2018-09-24T18:22:28.558Z,2.07
2018-09-24T18:28:38.163Z,1.83
2018-09-24T18:34:47.479Z,1.93
2018-09-24T18:40:56.632Z,1.97
2018-09-24T18:47:13.052Z,2.30
2018-09-24T18:53:22.520Z,2.30
2018-09-24T18:59:32.337Z,3.20
2018-09-24T19:05:46.743Z,4.53
2018-09-24T19:11:56.459Z,4.50
2018-09-24T19:18:07.180Z,2.43
2018-09-24T19:24:17.097Z,2.27
2018-09-24T19:30:27.545Z,1.40
2018-09-24T19:36:36.974Z,2.10
2018-09-24T19:42:47.389Z,2.07
2018-09-24T19:48:58.397Z,2.33
2018-09-24T19:55:07.723Z,2.43
2018-09-24T20:01:17.695Z,2.97
2018-09-24T20:07:27.163Z,3.53
2018-09-24T20:13:36.841Z,4.57
2018-09-24T20:19:46.289Z,3.10
2018-09-24T20:25:55.773Z,2.83
2018-09-24T20:32:04.975Z,2.40
2018-09-24T20:38:15.408Z,3.00
2018-09-24T20:44:24.951Z,3.80
2018-09-24T20:50:34.468Z,3.30
2018-09-24T20:56:44.118Z,3.30
2018-09-24T21:02:53.428Z,4.63
2018-09-24T21:09:02.767Z,5.00
2018-09-24T21:15:12.513Z,5.10
2018-09-24T21:21:21.935Z,5.33
2018-09-24T21:27:32.249Z,5.20
2018-09-24T21:33:42.213Z,4.63
2018-09-24T21:39:51.633Z,4.20
2018-09-24T21:46:01.617Z,4.97
2018-09-24T21:52:10.623Z,5.77
2018-09-24T21:58:20.681Z,4.10
2018-09-24T22:04:30.135Z,3.80
2018-09-24T22:10:40.109Z,3.20
2018-09-24T22:16:49.506Z,3.63
2018-09-24T22:22:59.007Z,3.97
2018-09-24T22:29:08.021Z,4.23
2018-09-24T22:35:17.398Z,4.23
2018-09-24T22:41:26.662Z,3.70
2018-09-24T22:47:35.941Z,3.77
2018-09-24T22:53:45.688Z,3.60
2018-09-24T22:59:54.656Z,3.67
2018-09-24T23:06:03.770Z,3.27
2018-09-24T23:12:13.514Z,4.23
2018-09-24T23:18:22.874Z,3.53
2018-09-24T23:24:32.871Z,3.17
2018-09-24T23:30:43.283Z,3.20
2018-09-24T23:36:52.728Z,3.73
2018-09-24T23:43:02.345Z,3.60
2018-09-24T23:49:12.099Z,3.30
2018-09-24T23:55:22.107Z,3.70
